createdAt,value
2017-06-19T00:00:02.870Z,19.3
2017-06-19T00:05:03.142Z,19.3
2017-06-19T00:10:02.541Z,19.2
2017-06-19T00:15:02.974Z,19.1
2017-06-19T00:20:02.339Z,19.0
2017-06-19T00:25:02.723Z,19.0
2017-06-19T00:30:03.129Z,19.0
2017-06-19T00:35:02.492Z,18.8
2017-06-19T00:40:02.824Z,18.8
2017-06-19T00:45:03.181Z,18.7
2017-06-19T00:50:02.420Z,18.7
2017-06-19T00:55:02.821Z,18.6
2017-06-19T01:00:03.120Z,18.6
2017-06-19T01:05:02.464Z,18.6
2017-06-19T01:10:02.887Z,18.6
2017-06-19T01:15:03.268Z,18.5
2017-06-19T01:20:02.697Z,18.5
2017-06-19T01:25:03.056Z,18.5
2017-06-19T01:30:02.386Z,18.6
2017-06-19T01:35:02.819Z,18.5
2017-06-19T01:40:03.173Z,18.5
2017-06-19T01:45:02.483Z,18.5
2017-06-19T01:50:02.883Z,18.5
2017-06-19T01:55:03.226Z,18.5
2017-06-19T02:00:02.629Z,18.2
2017-06-19T02:05:02.939Z,18.2
2017-06-19T02:10:02.269Z,18.2
2017-06-19T02:15:02.716Z,17.8
2017-06-19T02:20:03.124Z,18.1
2017-06-19T02:25:02.384Z,17.8
2017-06-19T02:30:02.818Z,17.8
2017-06-19T02:35:03.115Z,17.7
2017-06-19T02:40:02.475Z,17.8
2017-06-19T02:45:02.934Z,17.7
2017-06-19T02:50:02.286Z,17.7
2017-06-19T02:55:02.717Z,17.7
2017-06-19T03:00:02.992Z,17.7
2017-06-19T03:05:02.339Z,17.7
2017-06-19T03:10:02.684Z,17.7
2017-06-19T03:15:02.959Z,17.7
2017-06-19T03:20:02.439Z,17.7
2017-06-19T03:25:02.834Z,17.5
2017-06-19T03:30:03.208Z,17.5
2017-06-19T03:35:02.545Z,17.7
2017-06-19T03:40:03.011Z,17.5
2017-06-19T03:45:02.339Z,17.5
2017-06-19T03:50:02.700Z,17.3
2017-06-19T03:55:02.992Z,17.3
2017-06-19T04:00:02.332Z,17.7
2017-06-19T04:05:02.614Z,17.7
2017-06-19T04:10:02.982Z,17.7
2017-06-19T04:15:02.371Z,17.7
2017-06-19T04:20:02.738Z,17.8
2017-06-19T04:25:03.146Z,18.2
2017-06-19T04:30:03.075Z,18.2
2017-06-19T04:35:02.397Z,18.2
2017-06-19T04:40:02.761Z,18.1
2017-06-19T04:45:03.138Z,17.8
2017-06-19T04:50:02.473Z,18.2
2017-06-19T04:55:02.862Z,18.5
2017-06-19T05:00:03.264Z,18.7
2017-06-19T05:05:02.632Z,18.8
2017-06-19T05:10:02.942Z,19.1
2017-06-19T05:15:02.292Z,19.2
2017-06-19T05:20:02.668Z,19.5
2017-06-19T05:25:02.949Z,19.7
2017-06-19T05:30:03.330Z,20.0
2017-06-19T05:35:02.591Z,20.2
2017-06-19T05:40:02.975Z,20.6
2017-06-19T05:45:03.236Z,20.7
2017-06-19T05:50:02.585Z,20.7
2017-06-19T05:55:03.021Z,20.8
2017-06-19T06:00:02.359Z,21.2
2017-06-19T06:05:02.648Z,21.3
2017-06-19T06:10:03.135Z,21.5
2017-06-19T06:15:02.608Z,21.8
2017-06-19T06:20:03.060Z,21.8
2017-06-19T06:25:02.747Z,22.1
2017-06-19T06:30:03.003Z,22.2
2017-06-19T06:35:02.404Z,22.3
2017-06-19T06:40:02.837Z,22.7
2017-06-19T06:45:02.315Z,22.7
2017-06-19T06:50:02.741Z,23.1
2017-06-19T06:55:03.084Z,23.2
2017-06-19T07:00:02.473Z,23.6
2017-06-19T07:05:02.839Z,23.6
2017-06-19T07:10:02.291Z,23.7
2017-06-19T07:15:02.743Z,23.8
2017-06-19T07:20:03.060Z,24.2
2017-06-19T07:25:02.429Z,24.5
2017-06-19T07:30:03.077Z,24.7
2017-06-19T07:35:02.425Z,25.5
2017-06-19T07:40:02.810Z,25.8
2017-06-19T07:45:03.167Z,26.0
2017-06-19T07:50:02.537Z,26.2
2017-06-19T07:55:02.343Z,27.8
2017-06-19T08:00:02.983Z,26.5
2017-06-19T08:05:02.681Z,27.5
2017-06-19T08:10:02.341Z,27.7
2017-06-19T08:15:02.970Z,28.2
2017-06-19T08:20:02.403Z,28.5
2017-06-19T08:25:02.811Z,28.1
2017-06-19T08:30:03.168Z,28.8
2017-06-19T08:35:02.568Z,28.8
2017-06-19T08:40:03.114Z,27.8
2017-06-19T08:45:02.532Z,28.8
2017-06-19T08:50:02.925Z,30.2
2017-06-19T08:55:02.379Z,29.7
2017-06-19T09:00:02.736Z,29.5
2017-06-19T09:05:03.195Z,29.6
2017-06-19T09:10:02.602Z,29.2
2017-06-19T09:15:03.024Z,29.7
2017-06-19T09:20:02.517Z,30.1
2017-06-19T09:25:02.925Z,29.0
2017-06-19T09:30:02.299Z,29.2
2017-06-19T09:35:02.785Z,29.7
2017-06-19T09:40:03.239Z,30.2
2017-06-19T09:45:02.663Z,30.8
2017-06-19T09:50:03.164Z,30.5
2017-06-19T09:55:02.641Z,30.1
2017-06-19T10:00:02.964Z,29.7
2017-06-19T10:05:02.430Z,30.8
2017-06-19T10:10:02.790Z,31.7
2017-06-19T10:15:03.246Z,31.1
2017-06-19T10:20:02.593Z,31.1
2017-06-19T10:25:03.202Z,31.3
2017-06-19T10:30:02.810Z,31.2
2017-06-19T10:35:02.408Z,31.3
2017-06-19T10:40:03.170Z,31.8
2017-06-19T10:45:02.464Z,31.2
2017-06-19T10:50:03.025Z,31.1
2017-06-19T10:55:02.359Z,31.8
2017-06-19T11:00:02.881Z,32.4
2017-06-19T11:05:02.459Z,32.0
2017-06-19T11:10:02.911Z,32.0
2017-06-19T11:15:02.334Z,32.0
2017-06-19T11:20:02.957Z,31.6
2017-06-19T11:25:02.492Z,31.8
2017-06-19T11:30:02.970Z,32.7
2017-06-19T11:35:02.484Z,31.1
2017-06-19T11:40:03.226Z,32.7
2017-06-19T11:45:02.644Z,32.7
2017-06-19T11:50:02.972Z,33.2
2017-06-19T11:55:02.432Z,32.9
2017-06-19T12:00:02.313Z,34.0
2017-06-19T12:05:03.030Z,33.7
2017-06-19T12:10:03.261Z,31.7
2017-06-19T12:15:02.938Z,33.9
2017-06-19T12:20:02.983Z,33.2
2017-06-19T12:25:02.322Z,33.2
2017-06-19T12:30:02.707Z,33.0
2017-06-19T12:35:02.416Z,32.5
2017-06-19T12:40:03.201Z,33.5
2017-06-19T12:45:03.135Z,33.2
2017-06-19T12:50:02.925Z,33.2
2017-06-19T12:55:03.097Z,32.7
2017-06-19T13:00:02.803Z,32.0
2017-06-19T13:05:02.645Z,33.7
2017-06-19T13:10:02.875Z,34.9
2017-06-19T13:15:02.246Z,34.2
2017-06-19T13:20:03.018Z,34.9
2017-06-19T13:25:02.362Z,34.7
2017-06-19T13:30:02.863Z,35.7
2017-06-19T13:35:02.993Z,34.0
2017-06-19T13:40:02.996Z,34.7
2017-06-19T13:45:03.058Z,34.2
2017-06-19T13:50:02.468Z,34.2
2017-06-19T13:55:03.066Z,34.2
2017-06-19T14:00:02.388Z,34.2
2017-06-19T14:05:03.105Z,33.7
2017-06-19T14:10:03.170Z,34.9
2017-06-19T14:15:02.483Z,34.2
2017-06-19T14:20:02.922Z,36.0
2017-06-19T14:25:03.059Z,34.7
2017-06-19T14:30:03.278Z,34.2
2017-06-19T14:35:02.353Z,34.0
2017-06-19T14:40:03.125Z,34.2
2017-06-19T14:45:02.795Z,34.2
2017-06-19T14:50:02.447Z,35.5
2017-06-19T14:55:03.035Z,36.5
2017-06-19T15:00:02.416Z,35.4
2017-06-19T15:05:02.429Z,34.0
2017-06-19T15:10:02.760Z,34.0
2017-06-19T15:15:02.549Z,34.0
2017-06-19T15:20:03.068Z,34.7
2017-06-19T15:25:02.294Z,34.4
2017-06-19T15:30:02.527Z,35.7
2017-06-19T15:35:03.252Z,35.4
2017-06-19T15:40:02.530Z,35.0
2017-06-19T15:45:02.622Z,35.5
2017-06-19T15:50:02.634Z,34.0
2017-06-19T15:55:02.325Z,35.5
2017-06-19T16:00:02.634Z,35.0
2017-06-19T16:05:02.798Z,34.7
2017-06-19T16:10:02.713Z,34.7
2017-06-19T16:15:03.033Z,35.9
2017-06-19T16:20:02.942Z,35.2
2017-06-19T16:25:02.689Z,35.0
2017-06-19T16:30:02.426Z,34.9
2017-06-19T16:35:02.904Z,34.7
2017-06-19T16:40:02.716Z,34.2
2017-06-19T16:45:03.221Z,33.5
2017-06-19T16:50:02.636Z,33.4
2017-06-19T16:55:03.081Z,34.0
2017-06-19T17:00:02.560Z,33.7
2017-06-19T17:05:02.995Z,33.5
2017-06-19T17:10:02.439Z,34.7
2017-06-19T17:15:03.099Z,34.0
2017-06-19T17:20:02.448Z,32.9
2017-06-19T17:25:02.789Z,32.9
2017-06-19T17:30:03.060Z,33.2
2017-06-19T17:35:02.548Z,33.4
2017-06-19T17:40:02.892Z,33.2
2017-06-19T17:45:02.299Z,32.9
2017-06-19T17:50:02.577Z,33.0
2017-06-19T17:55:03.025Z,33.5
2017-06-19T18:00:02.324Z,33.5
2017-06-19T18:05:02.726Z,32.4
2017-06-19T18:10:03.207Z,32.7
2017-06-19T18:15:02.874Z,32.4
2017-06-19T18:20:02.398Z,32.2
2017-06-19T18:25:02.491Z,32.0
2017-06-19T18:30:02.251Z,31.7
2017-06-19T18:35:02.992Z,31.7
2017-06-19T18:40:02.891Z,31.6
2017-06-19T18:45:03.051Z,31.2
2017-06-19T18:50:02.860Z,30.7
2017-06-19T18:55:03.076Z,30.8
2017-06-19T19:00:03.033Z,30.2
2017-06-19T19:05:03.087Z,29.7
2017-06-19T19:10:02.678Z,29.2
2017-06-19T19:15:03.027Z,29.0
2017-06-19T19:20:02.591Z,28.6
2017-06-19T19:25:03.274Z,28.3
2017-06-19T19:30:02.364Z,28.0
2017-06-19T19:35:02.698Z,27.7
2017-06-19T19:40:02.647Z,27.3
2017-06-19T19:45:02.266Z,27.1
2017-06-19T19:50:02.438Z,26.7
2017-06-19T19:55:03.013Z,26.7
2017-06-19T20:00:02.399Z,26.7
2017-06-19T20:05:02.706Z,26.5
2017-06-19T20:10:02.943Z,26.2
2017-06-19T20:15:02.302Z,26.2
2017-06-19T20:20:02.812Z,26.1
2017-06-19T20:25:02.469Z,25.8
2017-06-19T20:30:02.769Z,25.5
2017-06-19T20:35:02.680Z,25.5
2017-06-19T20:40:02.518Z,25.1
2017-06-19T20:45:03.003Z,24.8
2017-06-19T20:50:02.641Z,24.6
2017-06-19T20:55:02.490Z,24.5
2017-06-19T21:00:02.744Z,24.3
2017-06-19T21:05:02.696Z,24.2
2017-06-19T21:10:02.950Z,23.8
2017-06-19T21:15:02.421Z,23.7
2017-06-19T21:20:02.534Z,23.6
2017-06-19T21:25:02.920Z,23.3
2017-06-19T21:30:02.801Z,23.2
2017-06-19T21:35:02.713Z,23.1
2017-06-19T21:40:02.988Z,23.0
2017-06-19T21:45:03.098Z,22.7
2017-06-19T21:50:02.730Z,22.7
2017-06-19T21:55:02.305Z,22.5
2017-06-19T22:00:02.879Z,22.5
2017-06-19T22:05:02.322Z,22.3
2017-06-19T22:10:02.782Z,22.1
2017-06-19T22:15:03.057Z,22.2
2017-06-19T22:20:02.506Z,22.7
2017-06-19T22:25:02.858Z,22.7
2017-06-19T22:30:02.293Z,23.1
2017-06-19T22:35:02.736Z,23.0
2017-06-19T22:40:03.084Z,22.7
2017-06-19T22:45:02.389Z,22.7
2017-06-19T22:50:02.871Z,22.7
2017-06-19T22:55:02.306Z,22.3
2017-06-19T23:00:02.749Z,22.2
2017-06-19T23:05:03.176Z,22.1
2017-06-19T23:10:02.588Z,22.1
2017-06-19T23:15:03.129Z,22.0
2017-06-19T23:20:02.583Z,22.0
2017-06-19T23:25:03.099Z,21.7
2017-06-19T23:30:02.352Z,21.7
2017-06-19T23:35:02.738Z,21.6
2017-06-19T23:40:03.030Z,21.5
2017-06-19T23:45:02.381Z,21.3
2017-06-19T23:50:02.830Z,21.2
2017-06-19T23:55:03.053Z,21.2
